Sawyer William — WDD9255 — position and weather

sailwx.info

Track history (hours):
 
Tides and Currents Weather Stations Pressure Air Temp Water Temp Dewpoint Dewpoint Depression Visibility Wind Speed Wind Dir Waves Ship Positions

Sawyer William

Owner: Florida Marine, LLC, Mandeville, LA. More information available from US FCC via Universal Licensing System and Coast Guard Vessel Documentation Center.

Last reported at 2017-Nov-16 15:33 UTC. Time now 2017-Nov-22 12:43 UTC.
Position N 29°46' W 095°05'.

Length 27 m; draft 2.9 m.

Type: Other ship. MMSI: 367308990.

Date/timePositionNaut miles runAvg speedWind from/ knotsBaromVisibWave heightAir tempDewpointWater temp
2017-Nov-16 15:33N 29°46' W 095°05'2 3.6
2017-Nov-16 15:05N 29°45' W 095°04'0 0.2
2017-Nov-16 14:57N 29°45' W 095°04'2 3.7
2017-Nov-16 14:18N 29°43' W 095°01'1 3.4
2017-Nov-16 14:00N 29°42' W 095°01'3 4.0
2017-Nov-16 13:22N 29°41' W 094°59'2 5.1
2017-Nov-16 13:00N 29°39' W 094°58'3 5.1
2017-Nov-16 12:29N 29°36' W 094°57'3 5.3
2017-Nov-16 12:00N 29°34' W 094°55'71 3.2
2017-Nov-15 13:52N 30°04' W 093°41'2 3.2
2017-Nov-15 13:10N 30°04' W 093°38'1 3.3
2017-Nov-15 13:00N 30°04' W 093°38'2 3.7
2017-Nov-15 12:24N 30°04' W 093°35'2 4.7
2017-Nov-15 12:00N 30°04' W 093°33'3 4.7
2017-Nov-15 11:26N 30°04' W 093°30'2 4.9
2017-Nov-15 11:00N 30°04' W 093°27'2 4.9
2017-Nov-15 10:30N 30°04' W 093°24'1 2.5
2017-Nov-15 10:00N 30°04' W 093°23'0 0.2
2017-Nov-15 09:30N 30°04' W 093°23'0 0.2
2017-Nov-15 09:00N 30°04' W 093°23'1 1.1
2017-Nov-15 08:30N 30°04' W 093°22'1 2.7
2017-Nov-15 08:00N 30°04' W 093°21'2 4.1
2017-Nov-15 07:30N 30°06' W 093°20'3 5.1
2017-Nov-15 07:00N 30°09' W 093°20'2 3.4
2017-Nov-15 06:30N 30°10' W 093°19'0 0.7
2017-Nov-15 06:00N 30°10' W 093°19'0 0.0
2017-Nov-15 05:30N 30°10' W 093°19'0 0.0
2017-Nov-15 05:00N 30°10' W 093°19'0 0.0
2017-Nov-15 04:30N 30°10' W 093°19'0 0.0
2017-Nov-15 04:00N 30°10' W 093°19'0 0.0
2017-Nov-15 03:30N 30°10' W 093°19'0 0.0
2017-Nov-15 03:00N 30°10' W 093°19'0 0.0
2017-Nov-15 02:30N 30°10' W 093°19'0 0.0
2017-Nov-15 02:00N 30°10' W 093°19'0 0.0
2017-Nov-15 01:30N 30°10' W 093°19'0 0.0
2017-Nov-15 01:00N 30°10' W 093°19'0 0.0
2017-Nov-15 00:30N 30°10' W 093°19'0 0.0
2017-Nov-15 00:00N 30°10' W 093°19'0 0.1
2017-Nov-14 23:30N 30°10' W 093°19'0 0.0
2017-Nov-14 23:00N 30°10' W 093°19'0 0.0
2017-Nov-14 22:30N 30°10' W 093°19'0 0.0
2017-Nov-14 22:00N 30°10' W 093°19'0 0.0
2017-Nov-14 21:30N 30°10' W 093°19'0 0.0
2017-Nov-14 21:00N 30°10' W 093°19'0 0.0
2017-Nov-14 20:30N 30°10' W 093°19'0 0.0
2017-Nov-14 20:00N 30°10' W 093°19'0 0.0
2017-Nov-14 19:30N 30°10' W 093°19'0 0.0
2017-Nov-14 19:00N 30°10' W 093°19'0 0.0
2017-Nov-14 18:30N 30°10' W 093°19'0 0.0
2017-Nov-14 18:00N 30°10' W 093°19'0 0.0
2017-Nov-14 17:30N 30°10' W 093°19'0 0.0
2017-Nov-14 17:00N 30°10' W 093°19'0 0.0
2017-Nov-14 16:30N 30°10' W 093°19'0 0.0
2017-Nov-14 16:00N 30°10' W 093°19'0 0.0
2017-Nov-14 15:30N 30°10' W 093°19'0 0.0
2017-Nov-14 15:00N 30°10' W 093°19'0 0.0
2017-Nov-14 14:30N 30°10' W 093°19'0 0.0
2017-Nov-14 13:59N 30°10' W 093°19'0 0.0
2017-Nov-14 13:30N 30°10' W 093°19'0 0.0
2017-Nov-14 13:00N 30°10' W 093°19'0 0.0
2017-Nov-14 12:30N 30°10' W 093°19'  
2017-Nov-08 09:29N 30°04' W 093°41'2 4.2
2017-Nov-08 09:00N 30°04' W 093°39'2 4.0
2017-Nov-08 08:30N 30°04' W 093°37'2 4.0
2017-Nov-08 08:00N 30°04' W 093°34'2 4.1
2017-Nov-08 07:30N 30°04' W 093°32'2 4.2
2017-Nov-08 07:00N 30°04' W 093°30'2 4.1
2017-Nov-08 06:30N 30°04' W 093°27'2 3.7
2017-Nov-08 06:00N 30°04' W 093°25'2 4.2
2017-Nov-08 05:30N 30°04' W 093°23'2 3.7
2017-Nov-08 05:00N 30°04' W 093°21'2 3.9
2017-Nov-08 04:30N 30°06' W 093°19'1 2.8
2017-Nov-08 04:00N 30°05' W 093°18'1 1.0
2017-Nov-08 03:30N 30°05' W 093°17'2 3.0
2017-Nov-08 03:00N 30°04' W 093°16'0 0.0
2017-Nov-08 02:30N 30°04' W 093°16'0 0.0
2017-Nov-08 02:00N 30°04' W 093°16'0 0.0
2017-Nov-08 01:30N 30°04' W 093°16'0 0.0
2017-Nov-08 01:00N 30°04' W 093°16'0 0.0
2017-Nov-08 00:30N 30°04' W 093°16'0 0.0
2017-Nov-08 00:00N 30°04' W 093°16'0 0.0
2017-Nov-07 23:30N 30°04' W 093°16'0 0.0
2017-Nov-07 23:00N 30°04' W 093°16'0 0.0
2017-Nov-07 22:30N 30°04' W 093°16'0 0.0
2017-Nov-07 22:00N 30°04' W 093°16'0 0.0
2017-Nov-07 21:30N 30°04' W 093°16'0 0.0
2017-Nov-07 21:00N 30°04' W 093°16'0 0.0
2017-Nov-07 20:30N 30°04' W 093°16'0 0.0
2017-Nov-07 20:00N 30°04' W 093°16'0 0.0
2017-Nov-07 19:30N 30°04' W 093°16'0 0.0
2017-Nov-07 19:00N 30°04' W 093°16'0 0.0
2017-Nov-07 18:30N 30°04' W 093°16'0 0.0
2017-Nov-07 18:00N 30°04' W 093°16'0 0.0
2017-Nov-07 17:30N 30°04' W 093°16'0 0.0
2017-Nov-07 17:00N 30°04' W 093°16'0 0.0
2017-Nov-07 16:30N 30°04' W 093°16'0 0.0
2017-Nov-07 16:00N 30°04' W 093°16'0 0.0
2017-Nov-07 15:30N 30°04' W 093°16'0 0.0
2017-Nov-07 15:00N 30°04' W 093°16'1 1.2
2017-Nov-07 14:30N 30°03' W 093°16'1 2.7
2017-Nov-07 14:00N 30°02' W 093°15'2 3.5
2017-Nov-07 13:30N 30°01' W 093°14'2 3.1
2017-Nov-07 13:00N 29°60' W 093°13'2 3.3
2017-Nov-07 12:30N 29°58' W 093°12'2 4.0
2017-Nov-07 12:00N 29°57' W 093°10'2 3.1
2017-Nov-07 11:30N 29°56' W 093°09'2 3.8
2017-Nov-07 11:00N 29°56' W 093°06'2 3.8
2017-Nov-07 10:30N 29°56' W 093°04'37 3.5
2017-Nov-06 23:54N 29°51' W 092°22'1 2.8
2017-Nov-06 23:30N 29°51' W 092°21'2 3.2
2017-Nov-06 23:00N 29°50' W 092°19'2 3.0
2017-Nov-06 22:30N 29°49' W 092°17'2 3.0
2017-Nov-06 22:00N 29°49' W 092°16'2 3.2
2017-Nov-06 21:30N 29°48' W 092°14'2 3.4
2017-Nov-06 21:00N 29°47' W 092°13'1 2.5
2017-Nov-06 20:30N 29°47' W 092°11'  
Track history (hours):
 
Tides and Currents Weather Stations Pressure Air Temp Water Temp Dewpoint Dewpoint Depression Visibility Wind Speed Wind Dir Waves Ship Positions

Sawyer William

Owner: Florida Marine, LLC, Mandeville, LA. More information available from US FCC via Universal Licensing System and Coast Guard Vessel Documentation Center.

Last reported at 2017-Nov-16 15:33 UTC. Time now 2017-Nov-22 12:43 UTC.
Position N 29°46' W 095°05'.

Length 27 m; draft 2.9 m.

Type: Other ship. MMSI: 367308990.

Date/timePositionNaut miles runAvg speedWind from/ knotsBaromVisibWave heightAir tempDewpointWater temp
2017-Nov-16 15:33N 29°46' W 095°05'2 3.6
2017-Nov-16 15:05N 29°45' W 095°04'0 0.2
2017-Nov-16 14:57N 29°45' W 095°04'2 3.7
2017-Nov-16 14:18N 29°43' W 095°01'1 3.4
2017-Nov-16 14:00N 29°42' W 095°01'3 4.0
2017-Nov-16 13:22N 29°41' W 094°59'2 5.1
2017-Nov-16 13:00N 29°39' W 094°58'3 5.1
2017-Nov-16 12:29N 29°36' W 094°57'3 5.3
2017-Nov-16 12:00N 29°34' W 094°55'71 3.2
2017-Nov-15 13:52N 30°04' W 093°41'2 3.2
2017-Nov-15 13:10N 30°04' W 093°38'1 3.3
2017-Nov-15 13:00N 30°04' W 093°38'2 3.7
2017-Nov-15 12:24N 30°04' W 093°35'2 4.7
2017-Nov-15 12:00N 30°04' W 093°33'3 4.7
2017-Nov-15 11:26N 30°04' W 093°30'2 4.9
2017-Nov-15 11:00N 30°04' W 093°27'2 4.9
2017-Nov-15 10:30N 30°04' W 093°24'1 2.5
2017-Nov-15 10:00N 30°04' W 093°23'0 0.2
2017-Nov-15 09:30N 30°04' W 093°23'0 0.2
2017-Nov-15 09:00N 30°04' W 093°23'1 1.1
2017-Nov-15 08:30N 30°04' W 093°22'1 2.7
2017-Nov-15 08:00N 30°04' W 093°21'2 4.1
2017-Nov-15 07:30N 30°06' W 093°20'3 5.1
2017-Nov-15 07:00N 30°09' W 093°20'2 3.4
2017-Nov-15 06:30N 30°10' W 093°19'0 0.7
2017-Nov-15 06:00N 30°10' W 093°19'0 0.0
2017-Nov-15 05:30N 30°10' W 093°19'0 0.0
2017-Nov-15 05:00N 30°10' W 093°19'0 0.0
2017-Nov-15 04:30N 30°10' W 093°19'0 0.0
2017-Nov-15 04:00N 30°10' W 093°19'0 0.0
2017-Nov-15 03:30N 30°10' W 093°19'0 0.0
2017-Nov-15 03:00N 30°10' W 093°19'0 0.0
2017-Nov-15 02:30N 30°10' W 093°19'0 0.0
2017-Nov-15 02:00N 30°10' W 093°19'0 0.0
2017-Nov-15 01:30N 30°10' W 093°19'0 0.0
2017-Nov-15 01:00N 30°10' W 093°19'0 0.0
2017-Nov-15 00:30N 30°10' W 093°19'0 0.0
2017-Nov-15 00:00N 30°10' W 093°19'0 0.1
2017-Nov-14 23:30N 30°10' W 093°19'0 0.0
2017-Nov-14 23:00N 30°10' W 093°19'0 0.0
2017-Nov-14 22:30N 30°10' W 093°19'0 0.0
2017-Nov-14 22:00N 30°10' W 093°19'0 0.0
2017-Nov-14 21:30N 30°10' W 093°19'0 0.0
2017-Nov-14 21:00N 30°10' W 093°19'0 0.0
2017-Nov-14 20:30N 30°10' W 093°19'0 0.0
2017-Nov-14 20:00N 30°10' W 093°19'0 0.0
2017-Nov-14 19:30N 30°10' W 093°19'0 0.0
2017-Nov-14 19:00N 30°10' W 093°19'0 0.0
2017-Nov-14 18:30N 30°10' W 093°19'0 0.0
2017-Nov-14 18:00N 30°10' W 093°19'0 0.0
2017-Nov-14 17:30N 30°10' W 093°19'0 0.0
2017-Nov-14 17:00N 30°10' W 093°19'0 0.0
2017-Nov-14 16:30N 30°10' W 093°19'0 0.0
2017-Nov-14 16:00N 30°10' W 093°19'0 0.0
2017-Nov-14 15:30N 30°10' W 093°19'0 0.0
2017-Nov-14 15:00N 30°10' W 093°19'0 0.0
2017-Nov-14 14:30N 30°10' W 093°19'0 0.0
2017-Nov-14 13:59N 30°10' W 093°19'0 0.0
2017-Nov-14 13:30N 30°10' W 093°19'0 0.0
2017-Nov-14 13:00N 30°10' W 093°19'0 0.0
2017-Nov-14 12:30N 30°10' W 093°19'  
2017-Nov-08 09:29N 30°04' W 093°41'2 4.2
2017-Nov-08 09:00N 30°04' W 093°39'2 4.0
2017-Nov-08 08:30N 30°04' W 093°37'2 4.0
2017-Nov-08 08:00N 30°04' W 093°34'2 4.1
2017-Nov-08 07:30N 30°04' W 093°32'2 4.2
2017-Nov-08 07:00N 30°04' W 093°30'2 4.1
2017-Nov-08 06:30N 30°04' W 093°27'2 3.7
2017-Nov-08 06:00N 30°04' W 093°25'2 4.2
2017-Nov-08 05:30N 30°04' W 093°23'2 3.7
2017-Nov-08 05:00N 30°04' W 093°21'2 3.9
2017-Nov-08 04:30N 30°06' W 093°19'1 2.8
2017-Nov-08 04:00N 30°05' W 093°18'1 1.0
2017-Nov-08 03:30N 30°05' W 093°17'2 3.0
2017-Nov-08 03:00N 30°04' W 093°16'0 0.0
2017-Nov-08 02:30N 30°04' W 093°16'0 0.0
2017-Nov-08 02:00N 30°04' W 093°16'0 0.0
2017-Nov-08 01:30N 30°04' W 093°16'0 0.0
2017-Nov-08 01:00N 30°04' W 093°16'0 0.0
2017-Nov-08 00:30N 30°04' W 093°16'0 0.0
2017-Nov-08 00:00N 30°04' W 093°16'0 0.0
2017-Nov-07 23:30N 30°04' W 093°16'0 0.0
2017-Nov-07 23:00N 30°04' W 093°16'0 0.0
2017-Nov-07 22:30N 30°04' W 093°16'0 0.0
2017-Nov-07 22:00N 30°04' W 093°16'0 0.0
2017-Nov-07 21:30N 30°04' W 093°16'0 0.0
2017-Nov-07 21:00N 30°04' W 093°16'0 0.0
2017-Nov-07 20:30N 30°04' W 093°16'0 0.0
2017-Nov-07 20:00N 30°04' W 093°16'0 0.0
2017-Nov-07 19:30N 30°04' W 093°16'0 0.0
2017-Nov-07 19:00N 30°04' W 093°16'0 0.0
2017-Nov-07 18:30N 30°04' W 093°16'0 0.0
2017-Nov-07 18:00N 30°04' W 093°16'0 0.0
2017-Nov-07 17:30N 30°04' W 093°16'0 0.0
2017-Nov-07 17:00N 30°04' W 093°16'0 0.0
2017-Nov-07 16:30N 30°04' W 093°16'0 0.0
2017-Nov-07 16:00N 30°04' W 093°16'0 0.0
2017-Nov-07 15:30N 30°04' W 093°16'0 0.0
2017-Nov-07 15:00N 30°04' W 093°16'1 1.2
2017-Nov-07 14:30N 30°03' W 093°16'1 2.7
2017-Nov-07 14:00N 30°02' W 093°15'2 3.5
2017-Nov-07 13:30N 30°01' W 093°14'2 3.1
2017-Nov-07 13:00N 29°60' W 093°13'2 3.3
2017-Nov-07 12:30N 29°58' W 093°12'2 4.0
2017-Nov-07 12:00N 29°57' W 093°10'2 3.1
2017-Nov-07 11:30N 29°56' W 093°09'2 3.8
2017-Nov-07 11:00N 29°56' W 093°06'2 3.8
2017-Nov-07 10:30N 29°56' W 093°04'37 3.5
2017-Nov-06 23:54N 29°51' W 092°22'1 2.8
2017-Nov-06 23:30N 29°51' W 092°21'2 3.2
2017-Nov-06 23:00N 29°50' W 092°19'2 3.0
2017-Nov-06 22:30N 29°49' W 092°17'2 3.0
2017-Nov-06 22:00N 29°49' W 092°16'2 3.2
2017-Nov-06 21:30N 29°48' W 092°14'2 3.4
2017-Nov-06 21:00N 29°47' W 092°13'1 2.5
2017-Nov-06 20:30N 29°47' W 092°11'  

Dump ship's entire track history